Time;durP1;ratioP1;P1;durP2;ratioP2;P2;SDS_P1;SDS_P2;PMS_P1;PMS_P2;Temp;Humidity;BMP_temperature;BMP_pressure;BME280_temperature;BME280_humidity;BME280_pressure;Samples;Min_cycle;Max_cycle;Signal;HPM_P1;HPM_P2
2022/02/07 00:00:02;;;;;;;;;0.00;0.00;;;;;20.76;39.97;101173.41;5059011;28;45727;-56
2022/02/07 00:03:00;;;;;;;;;1.00;1.00;;;;;20.74;39.51;101169.97;5058693;28;45752;-59
2022/02/07 00:05:12;;;;;;;;;3.25;0.00;;;;;20.73;39.73;101170.91;5058744;28;45244;-58
2022/02/07 00:07:38;;;;;;;;;0.50;0.00;;;;;20.72;39.67;101185.00;5059370;28;45612;-56
2022/02/07 00:10:04;;;;;;;;;0.00;0.00;;;;;20.69;39.46;101193.91;5058742;28;46257;-59
2022/02/07 00:12:29;;;;;;;;;0.00;0.00;;;;;20.69;39.50;101209.72;5058603;28;45402;-59
2022/02/07 00:14:54;;;;;;;;;1.75;0.00;;;;;20.66;39.41;101216.00;5058578;28;45350;-57
2022/02/07 00:17:21;;;;;;;;;1.50;1.00;;;;;20.65;39.58;101232.72;5058953;28;45328;-59
2022/02/07 00:19:47;;;;;;;;;0.00;0.00;;;;;20.66;39.77;101234.44;5058589;28;47082;-58
2022/02/07 00:22:12;;;;;;;;;1.50;0.00;;;;;20.62;39.84;101224.09;5058511;28;45370;-59
2022/02/07 00:24:37;;;;;;;;;0.25;0.25;;;;;20.63;39.36;101229.31;5059071;28;45264;-58
2022/02/07 00:27:03;;;;;;;;;0.00;0.00;;;;;20.59;39.24;101227.75;5058833;28;45287;-59
2022/02/07 00:29:28;;;;;;;;;1.25;0.00;;;;;20.61;39.35;101246.13;5058535;28;45491;-59
2022/02/07 00:31:54;;;;;;;;;0.00;0.00;;;;;20.60;39.24;101242.63;5058253;28;45220;-58
2022/02/07 00:34:19;;;;;;;;;0.00;0.00;;;;;20.58;39.53;101251.53;5058467;28;45276;-58
2022/02/07 00:36:44;;;;;;;;;0.75;0.50;;;;;20.58;39.61;101251.53;5058565;28;45315;-58
2022/02/07 00:39:17;;;;;;;;;1.75;1.75;;;;;20.55;39.36;101263.91;5058493;28;46948;-58
2022/02/07 00:41:56;;;;;;;;;0.00;0.00;;;;;20.54;39.67;101258.72;5058225;28;45702;-59
2022/02/07 00:44:21;;;;;;;;;1.00;1.00;;;;;20.53;39.36;101262.28;5040169;28;45365;-59
2022/02/07 00:46:58;;;;;;;;;0.00;0.00;;;;;20.53;39.07;101268.38;5058643;28;45387;-58
2022/02/07 00:49:24;;;;;;;;;1.00;0.25;;;;;20.52;39.44;101271.09;5058119;28;45521;-59
2022/02/07 00:51:49;;;;;;;;;0.00;0.00;;;;;20.48;39.08;101280.06;5058098;28;45351;-57
2022/02/07 00:54:17;;;;;;;;;0.25;0.25;;;;;20.48;38.85;101290.59;5058117;28;45358;-59
2022/02/07 00:56:43;;;;;;;;;0.00;0.00;;;;;20.46;39.07;101303.84;5058254;28;45530;-57
2022/02/07 00:59:09;;;;;;;;;0.00;0.00;;;;;20.47;39.11;101310.84;5057441;28;46178;-57
2022/02/07 01:01:35;;;;;;;;;1.75;0.50;;;;;20.46;39.18;101324.03;5057816;28;45655;-60
2022/02/07 01:04:00;;;;;;;;;1.50;0.00;;;;;20.46;39.05;101334.59;5057903;28;45375;-57
2022/02/07 01:06:26;;;;;;;;;1.50;1.00;;;;;20.42;39.26;101348.84;5058074;28;45493;-58
2022/02/07 01:09:05;;;;;;;;;3.00;1.00;;;;;20.42;38.69;101357.56;5057553;28;47167;-56
2022/02/07 01:14:16;;;;;;;;;0.00;0.00;;;;;20.41;39.11;101368.19;5057577;28;45279;-60
2022/02/07 01:22:27;;;;;;;;;0.75;0.00;;;;;20.38;38.48;101396.34;5057544;28;45434;-59
2022/02/07 01:54:33;;;;;;;;;1.00;0.50;;;;;20.26;38.29;101501.34;5057042;28;45385;-58
2022/02/07 01:56:59;;;;;;;;;0.25;0.00;;;;;20.24;37.90;101504.91;5057140;28;45339;-58
2022/02/07 01:59:25;;;;;;;;;1.00;0.25;;;;;20.26;38.20;101509.25;5057278;28;45541;-57
2022/02/07 02:01:50;;;;;;;;;1.00;1.00;;;;;20.23;38.13;101512.84;5056910;28;46267;-56
2022/02/07 02:04:16;;;;;;;;;1.00;1.00;;;;;20.24;37.72;101514.56;5038912;28;46037;-58
2022/02/07 02:06:41;;;;;;;;;0.50;0.50;;;;;20.21;37.97;101530.50;5057261;28;45297;-57
2022/02/07 02:09:07;;;;;;;;;0.00;0.00;;;;;20.20;37.94;101529.66;5057080;28;45215;-57
2022/02/07 02:11:35;;;;;;;;;0.00;0.00;;;;;20.20;37.67;101529.66;5055481;28;46004;-58
2022/02/07 02:38:44;;;;;;;;;0.00;0.00;;;;;20.14;38.01;101581.69;5056528;28;45387;-57
2022/02/07 02:46:37;;;;;;;;;1.00;1.00;;;;;20.12;37.43;101609.88;5056609;28;45781;-57
2022/02/07 02:49:03;;;;;;;;;0.50;0.00;;;;;20.11;37.56;101621.31;5056513;28;45160;-57
2022/02/07 02:51:30;;;;;;;;;1.50;0.50;;;;;20.10;37.54;101638.84;5056573;28;45561;-58
2022/02/07 02:53:55;;;;;;;;;0.25;0.25;;;;;20.11;37.37;101655.53;5056078;28;45289;-57
2022/02/07 02:56:21;;;;;;;;;1.75;0.75;;;;;20.10;37.74;101654.66;5038123;28;45419;-58
2022/02/07 02:58:47;;;;;;;;;0.00;0.00;;;;;20.10;37.38;101643.28;5056704;28;45313;-58
2022/02/07 03:01:12;;;;;;;;;1.75;0.75;;;;;20.10;37.70;101648.53;5056410;28;45328;-57
2022/02/07 03:03:37;;;;;;;;;1.00;1.00;;;;;20.08;37.27;101641.56;5038105;28;48018;-57
2022/02/07 03:06:03;;;;;;;;;2.75;0.00;;;;;20.08;37.47;101646.81;5056167;28;45299;-58
2022/02/07 03:08:28;;;;;;;;;1.00;1.00;;;;;20.07;37.50;101650.38;5056236;28;45449;-57
2022/02/07 03:11:16;;;;;;;;;0.00;0.00;;;;;20.08;37.07;101648.59;5056488;28;45566;-58
2022/02/07 03:13:54;;;;;;;;;0.00;0.00;;;;;20.07;37.24;101645.13;5055688;28;46384;-56
2022/02/07 03:16:39;;;;;;;;;2.00;0.00;;;;;20.05;37.30;101652.22;5055872;28;45501;-59
2022/02/07 03:19:10;;;;;;;;;1.00;0.00;;;;;20.05;37.08;101657.47;5056263;28;45355;-58
2022/02/07 03:21:36;;;;;;;;;0.00;0.00;;;;;20.04;37.01;101645.22;5038153;28;45351;-59
2022/02/07 03:24:02;;;;;;;;;0.00;0.00;;;;;20.05;37.38;101656.63;5059177;28;45486;-61
2022/02/07 03:26:35;;;;;;;;;0.25;0.25;;;;;20.04;37.06;101668.91;5059454;28;45249;-61
2022/02/07 03:29:00;;;;;;;;;0.00;0.00;;;;;20.04;37.25;101682.06;5059374;28;45304;-59
2022/02/07 03:31:25;;;;;;;;;2.75;1.00;;;;;20.02;36.94;101678.63;5059749;28;45281;-58
2022/02/07 03:33:51;;;;;;;;;0.00;0.00;;;;;20.02;36.92;101683.06;5059277;28;45372;-59
2022/02/07 03:36:16;;;;;;;;;1.00;0.00;;;;;20.01;37.27;101686.59;5041554;28;45955;-60
2022/02/07 03:38:42;;;;;;;;;0.50;0.00;;;;;20.01;36.89;101700.59;5059517;28;45316;-59
2022/02/07 03:41:08;;;;;;;;;0.00;0.00;;;;;20.02;37.38;101698.84;5059576;28;45392;-59
2022/02/07 03:43:34;;;;;;;;;0.75;0.00;;;;;20.00;36.95;101714.69;5041136;28;45727;-59
2022/02/07 03:46:01;;;;;;;;;2.00;1.00;;;;;20.00;37.23;101726.97;5059233;28;45300;-57
2022/02/07 03:48:27;;;;;;;;;0.50;0.00;;;;;19.99;36.90;101727.91;5059186;28;45445;-57
2022/02/07 03:50:52;;;;;;;;;1.00;1.00;;;;;19.98;37.21;101723.56;5059428;28;45406;-58
2022/02/07 03:53:17;;;;;;;;;0.25;0.25;;;;;19.99;36.87;101731.41;5059184;28;46549;-58
2022/02/07 03:55:43;;;;;;;;;0.25;0.25;;;;;19.98;37.02;101737.59;5058832;28;45324;-57
2022/02/07 03:58:08;;;;;;;;;0.00;0.00;;;;;19.96;37.04;101736.78;5059157;28;45490;-58
2022/02/07 04:00:35;;;;;;;;;1.00;1.00;;;;;19.96;37.13;101749.94;5041096;28;45419;-58
2022/02/07 04:03:05;;;;;;;;;1.00;1.00;;;;;19.98;37.31;101749.88;5058754;28;45531;-56
2022/02/07 04:08:07;;;;;;;;;1.00;1.00;;;;;19.95;37.17;101750.84;5058960;28;45366;-56
2022/02/07 04:10:39;;;;;;;;;0.00;0.00;;;;;19.95;37.15;101750.84;5058988;28;45570;-56
2022/02/07 04:13:07;;;;;;;;;2.75;0.00;;;;;19.93;36.97;101761.44;5058531;28;46662;-58
2022/02/07 04:15:32;;;;;;;;;1.00;1.00;;;;;19.94;36.77;101770.19;5058465;28;45876;-57
2022/02/07 04:18:02;;;;;;;;;0.00;0.00;;;;;19.90;36.73;101769.44;5058810;28;45588;-56
2022/02/07 04:20:28;;;;;;;;;2.00;1.00;;;;;19.92;37.08;101777.25;5058892;28;45228;-57
2022/02/07 04:22:53;;;;;;;;;0.25;0.25;;;;;19.93;36.69;101790.38;5058420;28;45491;-58
2022/02/07 04:25:19;;;;;;;;;0.00;0.00;;;;;19.91;37.05;101792.22;5059054;28;45529;-57
2022/02/07 04:27:44;;;;;;;;;1.00;0.00;;;;;19.89;36.66;101791.41;5058714;28;45460;-57
2022/02/07 04:30:11;;;;;;;;;1.00;0.00;;;;;19.91;36.57;101796.59;5058631;28;45610;-59
2022/02/07 04:32:37;;;;;;;;;0.50;0.25;;;;;19.89;36.54;101803.72;5058329;28;45900;-57
2022/02/07 04:35:03;;;;;;;;;1.00;1.00;;;;;19.90;36.68;101813.28;5057193;28;45312;-59
2022/02/07 04:37:28;;;;;;;;;1.00;0.25;;;;;19.88;36.81;101818.63;5058429;28;45401;-56
2022/02/07 04:39:54;;;;;;;;;0.25;0.25;;;;;19.88;36.79;101818.63;5058797;28;45429;-59
2022/02/07 04:42:21;;;;;;;;;0.75;0.75;;;;;19.90;36.53;101827.31;5058265;28;46383;-57
2022/02/07 04:53:14;;;;;;;;;0.00;0.00;;;;;19.87;36.70;101837.09;5057997;28;46064;-56
2022/02/07 04:55:49;;;;;;;;;0.00;0.00;;;;;19.86;36.47;101833.59;5040016;28;45922;-56
2022/02/07 04:59:19;;;;;;;;;0.00;0.00;;;;;19.85;36.51;101845.00;5058090;28;45479;-56
2022/02/07 05:01:15;;;;;;;;;0.00;0.00;;;;;19.85;36.83;101841.53;5040444;28;45359;-56
2022/02/07 05:03:49;;;;;;;;;1.00;1.00;;;;;19.85;36.49;101844.16;5057695;28;45366;-58
2022/02/07 05:14:27;;;;;;;;;0.25;0.25;;;;;19.83;36.57;101869.66;5057703;28;45681;-56
2022/02/07 05:16:55;;;;;;;;;2.25;1.00;;;;;19.80;34.74;101873.25;5057904;28;46046;-58
2022/02/07 05:19:20;;;;;;;;;1.00;1.00;;;;;19.65;34.51;101885.19;5058241;28;45272;-59
2022/02/07 05:21:46;;;;;;;;;1.00;1.00;;;;;19.49;34.41;101889.25;5057949;28;45246;-58
2022/02/07 05:24:11;;;;;;;;;3.25;1.00;;;;;19.37;33.94;101895.78;5057567;28;47473;-58
2022/02/07 05:26:37;;;;;;;;;1.50;1.50;;;;;19.26;33.66;101898.75;5057661;28;45284;-61
2022/02/07 05:29:04;;;;;;;;;1.00;1.00;;;;;19.12;33.21;101900.09;5057787;28;45309;-62
2022/02/07 05:31:30;;;;;;;;;3.00;1.00;;;;;18.98;33.42;101899.66;5057929;28;45503;-57
2022/02/07 05:33:55;;;;;;;;;2.00;2.00;;;;;18.92;33.84;101900.69;5057345;28;45450;-57
2022/02/07 05:36:21;;;;;;;;;3.00;2.00;;;;;18.86;33.26;101895.63;5057743;28;45256;-61
2022/02/07 05:38:49;;;;;;;;;0.75;0.50;;;;;18.79;33.13;101908.09;5057628;28;45873;-59
2022/02/07 05:41:16;;;;;;;;;2.00;1.25;;;;;18.70;33.19;101905.75;5057886;28;45381;-57
2022/02/07 05:43:45;;;;;;;;;2.50;1.75;;;;;18.64;33.07;101914.66;5057234;28;47183;-64
2022/02/07 05:46:11;;;;;;;;;2.25;1.00;;;;;18.58;32.92;101937.63;5056970;28;45835;-60
2022/02/07 05:48:36;;;;;;;;;1.00;1.00;;;;;18.45;32.91;101931.88;5057313;28;45257;-57
2022/02/07 05:51:01;;;;;;;;;1.00;1.00;;;;;18.37;32.97;101939.97;5057466;28;45434;-60
2022/02/07 05:53:27;;;;;;;;;2.75;2.75;;;;;18.34;33.17;101940.06;5056989;28;46567;-58
2022/02/07 05:55:52;;;;;;;;;1.00;1.00;;;;;18.32;33.21;101952.38;5057438;28;45331;-63
2022/02/07 05:58:17;;;;;;;;;2.00;1.75;;;;;18.38;34.00;101957.44;5039198;28;45339;-65
2022/02/07 06:00:43;;;;;;;;;1.25;1.25;;;;;18.44;34.14;101964.28;5057324;28;45406;-66
2022/02/07 06:03:08;;;;;;;;;2.50;2.00;;;;;18.51;34.26;101964.06;5057040;28;47411;-64
2022/02/07 06:05:34;;;;;;;;;3.75;2.00;;;;;18.59;34.09;101965.59;5056933;28;45356;-63
2022/02/07 06:07:59;;;;;;;;;2.00;1.00;;;;;18.65;34.00;101968.06;5056957;28;45387;-63
2022/02/07 06:10:25;;;;;;;;;1.00;1.00;;;;;18.72;34.43;101969.59;5039358;28;45599;-65
2022/02/07 06:12:51;;;;;;;;;3.25;0.50;;;;;18.77;34.13;101974.69;5056613;28;46075;-62
2022/02/07 06:15:18;;;;;;;;;1.50;1.00;;;;;18.80;34.33;101975.47;5056566;28;45757;-62
2022/02/07 06:17:47;;;;;;;;;3.00;2.00;;;;;18.87;34.29;101985.81;5056836;28;45340;-65
2022/02/07 06:20:13;;;;;;;;;2.00;1.00;;;;;18.89;34.32;101984.00;5056927;28;45312;-62
2022/02/07 06:22:38;;;;;;;;;1.00;1.00;;;;;18.94;34.12;101990.88;5056551;28;46214;-63
2022/02/07 06:25:04;;;;;;;;;3.00;1.75;;;;;18.97;34.01;101989.91;5056607;28;45391;-62
2022/02/07 06:27:30;;;;;;;;;4.25;2.00;;;;;18.95;34.05;101995.22;5038577;28;45379;-59
2022/02/07 06:29:55;;;;;;;;;1.75;1.50;;;;;19.01;34.27;101991.53;5057170;28;45277;-60
2022/02/07 06:32:21;;;;;;;;;1.25;1.25;;;;;19.04;34.35;101996.69;5056478;28;45393;-61
2022/02/07 06:34:46;;;;;;;;;3.00;2.00;;;;;19.06;34.08;102007.16;5056408;28;45266;-61
2022/02/07 06:37:11;;;;;;;;;2.00;1.50;;;;;19.09;34.00;102012.31;5056628;28;45266;-60
2022/02/07 06:39:37;;;;;;;;;1.75;1.00;;;;;19.10;34.27;102012.28;5056725;28;45231;-62
2022/02/07 06:42:03;;;;;;;;;1.25;1.25;;;;;19.11;34.26;102010.50;5056365;28;45672;-58
2022/02/07 06:44:28;;;;;;;;;4.50;2.50;;;;;19.12;34.41;102012.22;5056652;28;45172;-62
2022/02/07 06:46:54;;;;;;;;;3.50;1.00;;;;;19.15;34.13;102028.75;5056656;28;45340;-59
2022/02/07 06:49:20;;;;;;;;;1.75;0.00;;;;;19.17;34.36;102031.34;5056568;28;45376;-59
2022/02/07 06:51:45;;;;;;;;;0.75;0.75;;;;;19.18;34.60;102032.19;5056122;28;46614;-62
2022/02/07 06:54:11;;;;;;;;;3.00;1.25;;;;;19.18;34.24;102045.34;5038185;28;46307;-59
2022/02/07 06:56:36;;;;;;;;;3.00;1.00;;;;;19.19;34.17;102044.44;5056250;28;45260;-60
2022/02/07 06:59:03;;;;;;;;;1.75;1.75;;;;;19.19;34.46;102054.94;5060004;28;45250;-60
2022/02/07 07:01:29;;;;;;;;;2.50;1.25;;;;;19.21;34.38;102045.25;5059978;28;47382;-59
2022/02/07 07:03:54;;;;;;;;;0.75;0.75;;;;;19.22;34.57;102052.22;5060195;28;45269;-62
2022/02/07 07:06:20;;;;;;;;;1.75;1.25;;;;;19.20;34.52;102052.25;5059914;28;45167;-59
2022/02/07 07:08:50;;;;;;;;;0.25;0.25;;;;;19.22;34.31;102060.13;5060057;28;45172;-60
2022/02/07 07:11:19;;;;;;;;;1.00;0.50;;;;;19.23;34.29;102056.59;5059594;28;46585;-59
2022/02/07 07:13:52;;;;;;;;;2.00;1.50;;;;;19.23;34.20;102061.84;5059525;28;45980;-58
2022/02/07 07:18:52;;;;;;;;;0.00;0.00;;;;;19.25;34.76;102070.50;5059874;28;45240;-60
2022/02/07 07:21:18;;;;;;;;;1.50;1.50;;;;;19.26;34.41;102070.50;5058105;28;47670;-58
2022/02/07 07:23:44;;;;;;;;;2.00;0.75;;;;;19.27;34.66;102074.84;5059434;28;45477;-59
2022/02/07 07:26:09;;;;;;;;;1.50;1.50;;;;;19.25;34.42;102083.66;5059509;28;45390;-60
2022/02/07 07:28:37;;;;;;;;;2.00;2.00;;;;;19.27;34.72;102100.25;5059600;28;45255;-58
2022/02/07 07:31:06;;;;;;;;;3.25;2.00;;;;;19.27;34.83;102103.75;5059396;28;45655;-58
2022/02/07 07:33:33;;;;;;;;;3.50;1.25;;;;;19.26;34.76;102112.53;5059318;28;45441;-60
2022/02/07 07:35:58;;;;;;;;;1.25;1.25;;;;;19.27;34.87;102116.03;5041791;28;45335;-61
2022/02/07 07:38:24;;;;;;;;;0.25;0.25;;;;;19.28;34.83;102115.13;5059412;28;45588;-60
2022/02/07 07:40:50;;;;;;;;;1.00;1.00;;;;;19.26;34.53;102119.56;5059036;28;45437;-60
2022/02/07 07:43:16;;;;;;;;;4.75;3.00;;;;;19.28;34.80;102123.00;5059204;28;45783;-62
2022/02/07 07:45:47;;;;;;;;;2.75;0.00;;;;;19.29;34.71;102133.47;5059409;28;45371;-59
2022/02/07 07:48:18;;;;;;;;;1.50;0.75;;;;;19.29;35.04;102157.13;5059326;28;45434;-58
2022/02/07 08:04:09;;;;;;;;;1.00;1.00;;;;;19.22;35.30;102194.16;5058805;28;45704;-61
2022/02/07 08:06:43;;;;;;;;;6.00;2.00;;;;;19.21;35.26;102206.44;5058939;28;45485;-62
2022/02/07 08:11:37;;;;;;;;;2.25;1.00;;;;;19.21;35.62;102203.81;5058691;28;46079;-60
2022/02/07 08:14:04;;;;;;;;;2.00;1.25;;;;;19.19;35.27;102200.34;5058767;28;45963;-65
2022/02/07 08:16:31;;;;;;;;;1.00;1.00;;;;;19.19;35.56;102204.75;5059011;28;45312;-64
2022/02/07 08:19:07;;;;;;;;;1.00;1.00;;;;;19.20;35.72;102214.38;5058855;28;45226;-64
2022/02/07 08:21:36;;;;;;;;;0.75;0.75;;;;;19.22;35.63;102228.34;5058849;28;46270;-60
2022/02/07 08:24:01;;;;;;;;;2.25;1.00;;;;;19.23;35.47;102230.06;5058825;28;45326;-60
2022/02/07 08:26:27;;;;;;;;;2.00;1.00;;;;;19.25;35.42;102233.47;5040492;28;45646;-60
2022/02/07 08:28:52;;;;;;;;;2.25;1.00;;;;;19.25;35.69;102241.38;5058696;28;45432;-61
2022/02/07 08:31:18;;;;;;;;;0.25;0.25;;;;;19.29;36.09;102250.91;5058330;28;45330;-60
2022/02/07 08:33:46;;;;;;;;;3.75;2.00;;;;;19.27;35.82;102253.59;5058173;28;45336;-61
2022/02/07 08:36:11;;;;;;;;;5.00;1.25;;;;;19.29;35.80;102250.91;5058437;28;45336;-58
2022/02/07 08:38:36;;;;;;;;;2.00;1.00;;;;;19.31;35.72;102267.50;5058669;28;45439;-60
2022/02/07 08:41:02;;;;;;;;;1.75;1.00;;;;;19.29;35.73;102264.06;5058444;28;46088;-58
2022/02/07 08:43:27;;;;;;;;;3.25;2.50;;;;;19.31;35.71;102270.13;5058253;28;45435;-60
2022/02/07 08:45:52;;;;;;;;;11.50;9.25;;;;;19.31;35.72;102270.13;5058415;28;45412;-59
2022/02/07 08:48:18;;;;;;;;;35.00;30.00;;;;;19.33;35.97;102270.09;5040264;28;45297;-58
2022/02/07 08:50:45;;;;;;;;;57.75;47.50;;;;;19.32;36.22;102266.59;5057904;28;46107;-59
2022/02/07 08:53:11;;;;;;;;;129.00;122.25;;;;;19.33;36.12;102263.06;5057803;28;45335;-59
2022/02/07 08:55:41;;;;;;;;;157.25;142.25;;;;;19.34;36.45;102269.19;5057983;28;45421;-59
2022/02/07 08:58:17;;;;;;;;;209.25;196.25;;;;;19.34;36.51;102280.56;5058082;28;45629;-61
2022/02/07 09:08:21;;;;;;;;;387.20;365.00;;;;;19.38;38.08;102308.50;5057880;28;45248;-60
2022/02/07 09:10:49;;;;;;;;;470.80;433.60;;;;;19.36;38.53;102312.06;5056935;28;47514;-61
2022/02/07 09:13:16;;;;;;;;;475.25;445.75;;;;;19.40;39.20;102332.13;5057052;28;45381;-58
2022/02/07 09:15:54;;;;;;;;;490.80;454.40;;;;;19.39;38.71;102336.50;5055765;28;45374;-57
2022/02/07 09:18:20;;;;;;;;;532.17;495.17;;;;;19.40;39.10;102348.75;5057190;28;45476;-61
2022/02/07 09:20:47;;;;;;;;;450.60;437.80;;;;;19.39;38.80;102348.81;5056002;28;45760;-59
2022/02/07 09:23:12;;;;;;;;;429.00;399.20;;;;;19.39;38.93;102346.19;5056983;28;45420;-59
2022/02/07 09:25:38;;;;;;;;;340.50;324.25;;;;;19.38;38.74;102355.81;5057298;28;45316;-58
2022/02/07 09:28:04;;;;;;;;;348.25;322.75;;;;;19.36;37.79;102359.41;5057601;28;45451;-60
2022/02/07 09:30:30;;;;;;;;;139.50;127.75;;;;;19.34;37.11;102369.09;5057167;28;45253;-58
2022/02/07 09:32:56;;;;;;;;;134.00;125.50;;;;;19.28;36.39;102375.34;5057049;28;45400;-58
2022/02/07 09:35:21;;;;;;;;;100.50;89.25;;;;;19.22;36.09;102371.13;5039155;28;45288;-59
2022/02/07 09:37:46;;;;;;;;;97.25;89.00;;;;;19.17;36.05;102388.78;5057567;28;45263;-60
2022/02/07 09:40:14;;;;;;;;;93.00;87.33;;;;;19.13;35.75;102395.84;5057183;28;46318;-60
2022/02/07 09:42:42;;;;;;;;;81.75;73.25;;;;;19.11;35.63;102399.44;5038841;28;45609;-64
2022/02/07 09:45:17;;;;;;;;;127.50;117.75;;;;;19.11;35.96;102413.47;5039312;28;45507;-62
2022/02/07 09:47:43;;;;;;;;;105.75;98.75;;;;;19.14;36.12;102426.50;5056093;28;45648;-58
2022/02/07 09:50:08;;;;;;;;;108.75;96.75;;;;;19.19;35.87;102439.53;5038908;28;47081;-60
2022/02/07 09:52:34;;;;;;;;;100.25;94.75;;;;;19.25;35.82;102433.25;5057195;28;45323;-59
2022/02/07 09:55:00;;;;;;;;;82.50;74.25;;;;;19.31;35.51;102436.59;5039093;28;45385;-60
2022/02/07 09:57:26;;;;;;;;;96.75;86.00;;;;;19.38;35.31;102439.09;5057356;28;45387;-58
2022/02/07 09:59:53;;;;;;;;;81.75;72.75;;;;;19.44;35.37;102442.44;5056736;28;45823;-59
2022/02/07 10:02:39;;;;;;;;;78.75;67.75;;;;;19.52;35.21;102447.47;5056852;28;45269;-60
2022/02/07 10:05:10;;;;;;;;;73.50;57.25;;;;;19.59;35.44;102453.44;5057259;28;45380;-61
2022/02/07 10:07:50;;;;;;;;;73.25;58.75;;;;;19.63;34.83;102460.38;5057278;28;45252;-57
2022/02/07 10:11:15;;;;;;;;;74.00;56.50;;;;;19.69;34.75;102465.47;5055400;28;47317;-62
2022/02/07 10:34:59;;;;;;;;;45.50;36.50;;;;;19.96;33.78;102478.84;5056603;28;45713;-61
2022/02/07 10:40:36;;;;;;;;;39.25;33.75;;;;;20.01;33.13;102482.19;5041929;28;45361;-58
2022/02/07 10:45:51;;;;;;;;;33.75;31.50;;;;;20.01;33.27;102483.97;5056286;28;45272;-61
2022/02/07 10:48:32;;;;;;;;;29.25;26.75;;;;;20.00;33.12;102484.88;5038297;28;45389;-61
2022/02/07 10:51:19;;;;;;;;;32.00;28.00;;;;;20.02;33.01;102483.94;5056532;28;45402;-60
2022/02/07 10:53:55;;;;;;;;;30.75;29.25;;;;;20.02;32.99;102494.44;5056098;28;45590;-61
2022/02/07 10:56:31;;;;;;;;;27.50;25.75;;;;;20.01;32.95;102484.81;5056165;28;45387;-61
2022/02/07 10:58:57;;;;;;;;;24.50;23.75;;;;;20.01;33.47;102487.47;5037980;28;45470;-62
2022/02/07 11:01:39;;;;;;;;;23.50;21.75;;;;;20.01;33.34;102486.63;5056522;28;45489;-58
2022/02/07 11:04:11;;;;;;;;;28.75;27.00;;;;;20.00;33.39;102484.88;5056255;28;46521;-60
2022/02/07 11:06:43;;;;;;;;;20.00;17.50;;;;;19.99;32.77;102480.53;5054603;28;45805;-59
2022/02/07 11:12:06;;;;;;;;;9.00;8.00;;;;;19.91;31.96;102486.88;5056512;28;45363;-59
2022/02/07 11:14:43;;;;;;;;;10.75;9.25;;;;;19.83;32.13;102485.28;5055725;28;46049;-57
2022/02/07 11:20:13;;;;;;;;;26.50;13.75;;;;;19.73;31.46;102495.22;5056052;28;45377;-59
2022/02/07 11:23:11;;;;;;;;;11.75;10.00;;;;;19.67;31.73;102490.97;5055933;28;45342;-59
2022/02/07 11:28:22;;;;;;;;;10.00;9.00;;;;;19.61;31.86;102476.22;5055718;28;45273;-56
2022/02/07 11:31:06;;;;;;;;;8.25;6.75;;;;;19.62;31.63;102479.69;5055882;28;45959;-61
2022/02/07 11:33:38;;;;;;;;;10.75;8.25;;;;;19.58;31.05;102484.16;5054681;28;45358;-60
2022/02/07 11:36:10;;;;;;;;;7.50;5.25;;;;;19.57;31.14;102489.44;5054375;28;46162;-59
2022/02/07 11:38:36;;;;;;;;;10.25;6.25;;;;;19.54;31.49;102494.81;5055829;28;45350;-58
2022/02/07 11:41:04;;;;;;;;;6.00;3.00;;;;;19.59;31.06;102501.69;5055815;28;45808;-59
2022/02/07 11:43:35;;;;;;;;;3.75;2.00;;;;;19.64;30.69;102506.81;5057159;28;45657;-58
2022/02/07 11:46:07;;;;;;;;;3.75;3.50;;;;;19.60;30.64;102510.41;5058963;28;45380;-59
2022/02/07 11:48:35;;;;;;;;;5.00;2.00;;;;;19.53;30.40;102503.59;5059076;28;45463;-56
2022/02/07 11:51:09;;;;;;;;;4.00;1.75;;;;;19.45;30.29;102507.28;5059073;28;45233;-59
2022/02/07 11:53:39;;;;;;;;;7.75;4.00;;;;;19.36;30.06;102510.09;5041316;28;45495;-59
2022/02/07 11:56:17;;;;;;;;;5.50;4.00;;;;;19.30;30.13;102510.25;5058830;28;45339;-61
2022/02/07 11:58:50;;;;;;;;;3.25;2.00;;;;;19.22;30.09;102512.22;5059091;28;45965;-59
2022/02/07 12:01:43;;;;;;;;;4.00;3.00;;;;;19.15;30.08;102514.13;5059007;28;45443;-59
2022/02/07 12:04:09;;;;;;;;;4.75;3.00;;;;;19.07;29.78;102516.91;5021440;28;45299;-59
2022/02/07 12:06:35;;;;;;;;;2.50;2.25;;;;;19.01;30.03;102509.19;5040669;28;47749;-59
2022/02/07 12:09:00;;;;;;;;;4.50;2.25;;;;;18.95;30.03;102510.19;5058673;28;45414;-60
2022/02/07 12:11:46;;;;;;;;;1.75;1.75;;;;;18.88;30.12;102502.44;5057324;28;45330;-61
2022/02/07 12:14:35;;;;;;;;;2.25;2.00;;;;;18.82;30.17;102504.28;5057347;28;45407;-60
2022/02/07 12:17:01;;;;;;;;;2.00;2.00;;;;;18.79;30.11;102508.72;5058688;28;46163;-61
2022/02/07 12:19:38;;;;;;;;;6.00;3.00;;;;;18.75;30.02;102510.56;5058433;28;45287;-59
2022/02/07 12:22:18;;;;;;;;;3.00;2.00;;;;;18.70;29.97;102500.16;5040475;28;45312;-59
2022/02/07 12:24:58;;;;;;;;;1.50;1.25;;;;;18.66;30.14;102497.63;5059006;28;45708;-60
2022/02/07 12:27:26;;;;;;;;;2.00;2.00;;;;;18.60;29.98;102497.75;5058373;28;45437;-60
2022/02/07 12:32:36;;;;;;;;;2.25;2.00;;;;;18.54;29.93;102496.09;5058486;28;45353;-62
2022/02/07 12:35:03;;;;;;;;;4.25;3.50;;;;;18.50;30.23;102492.69;5058756;28;45314;-60
2022/02/07 12:37:37;;;;;;;;;4.00;4.00;;;;;18.48;30.36;102504.13;5058236;28;46882;-62
2022/02/07 12:40:04;;;;;;;;;5.75;3.00;;;;;18.44;30.62;102519.06;5057525;28;45362;-61
2022/02/07 12:42:31;;;;;;;;;6.50;4.75;;;;;18.38;30.55;102503.44;5058416;28;45279;-61
2022/02/07 12:45:00;;;;;;;;;6.00;3.00;;;;;18.35;31.03;102501.72;5058455;28;45347;-64
2022/02/07 12:47:25;;;;;;;;;3.00;3.00;;;;;18.34;30.62;102499.16;5057941;28;46462;-62
2022/02/07 12:49:54;;;;;;;;;3.75;2.75;;;;;18.32;30.70;102503.56;5058115;28;45463;-65
2022/02/07 12:52:20;;;;;;;;;6.50;3.50;;;;;18.31;31.05;102501.81;5058168;28;45371;-67
2022/02/07 12:54:45;;;;;;;;;3.75;3.00;;;;;18.34;31.00;102501.78;5057622;28;45549;-67
2022/02/07 12:57:13;;;;;;;;;7.00;4.00;;;;;18.38;31.05;102501.69;5057786;28;45299;-62
2022/02/07 12:59:52;;;;;;;;;4.50;3.25;;;;;18.45;31.85;102494.56;5061575;28;45711;-62
2022/02/07 13:02:26;;;;;;;;;4.00;4.00;;;;;18.49;32.26;102490.09;5057800;28;45448;-64
2022/02/07 13:04:52;;;;;;;;;4.25;3.00;;;;;18.52;32.03;102490.03;5058342;28;45421;-63
2022/02/07 13:07:20;;;;;;;;;6.25;3.25;;;;;18.54;32.07;102489.09;5039952;28;45704;-61
2022/02/07 13:09:52;;;;;;;;;4.50;2.75;;;;;18.59;32.12;102498.63;5058100;28;45935;-62
2022/02/07 13:12:25;;;;;;;;;3.00;3.00;;;;;18.61;31.79;102500.34;5058149;28;45439;-62
2022/02/07 13:14:51;;;;;;;;;5.00;3.00;;;;;18.61;31.67;102496.84;5057935;28;45419;-62
2022/02/07 13:17:22;;;;;;;;;2.00;1.75;;;;;18.65;31.78;102501.16;5058057;28;45392;-63
2022/02/07 13:19:49;;;;;;;;;1.50;1.50;;;;;18.70;32.13;102508.03;5056711;28;45922;-63
2022/02/07 13:22:17;;;;;;;;;2.25;1.75;;;;;18.73;32.08;102501.84;5058111;28;45381;-64
2022/02/07 13:24:44;;;;;;;;;3.00;3.00;;;;;18.77;32.03;102495.66;5057857;28;45625;-63
2022/02/07 13:27:14;;;;;;;;;5.50;3.00;;;;;18.82;31.87;102491.13;5039684;28;45501;-65
2022/02/07 13:29:51;;;;;;;;;2.00;2.00;;;;;18.84;32.00;102507.75;5057594;28;45600;-63
2022/02/07 13:32:18;;;;;;;;;1.75;1.25;;;;;18.86;31.92;102499.81;5058020;28;45357;-64
2022/02/07 13:34:45;;;;;;;;;2.00;2.00;;;;;18.90;31.79;102506.75;5057692;28;45537;-63
2022/02/07 13:37:15;;;;;;;;;2.00;2.00;;;;;18.91;31.87;102512.84;5039466;28;47818;-64
2022/02/07 13:40:03;;;;;;;;;2.00;1.75;;;;;18.95;32.02;102515.44;5057452;28;45922;-63
2022/02/07 13:42:31;;;;;;;;;2.00;2.00;;;;;18.96;31.98;102526.78;5057649;28;45419;-66
2022/02/07 13:45:04;;;;;;;;;3.00;3.00;;;;;18.97;31.75;102523.28;5057711;28;45205;-66
2022/02/07 13:47:30;;;;;;;;;2.00;2.00;;;;;18.98;31.89;102523.22;5038998;28;47803;-65
2022/02/07 13:49:58;;;;;;;;;5.00;2.25;;;;;18.99;32.15;102513.59;5057251;28;45233;-65
2022/02/07 13:52:29;;;;;;;;;3.00;1.75;;;;;19.01;31.67;102524.94;5057132;28;45250;-66
2022/02/07 13:55:19;;;;;;;;;4.00;2.00;;;;;19.03;31.92;102519.66;5057354;28;45420;-64
2022/02/07 13:58:11;;;;;;;;;2.25;1.00;;;;;19.04;32.16;102524.00;5057016;28;46587;-65
2022/02/07 14:00:53;;;;;;;;;2.75;1.50;;;;;19.04;31.99;102518.75;5053663;28;45233;-66